sensor_id;sensor_type;location;lat;lon;timestamp;pressure;altitude;pressure_sealevel;temperature;humidity
38558;BME280;24333;42.626;23.308;2022-10-31T00:46:56;92714.38;;;12.68;80.92
38558;BME280;24333;42.626;23.308;2022-10-31T01:10:14;92714.31;;;12.27;85.62
38558;BME280;24333;42.626;23.308;2022-10-31T01:12:46;92712.38;;;12.27;85.47
38558;BME280;24333;42.626;23.308;2022-10-31T01:18:45;92721.81;;;12.34;87.20
38558;BME280;24333;42.626;23.308;2022-10-31T01:25:25;92692.84;;;11.98;87.92
38558;BME280;24333;42.626;23.308;2022-10-31T03:24:32;92766.75;;;12.70;84.79
38558;BME280;24333;42.626;23.308;2022-10-31T03:27:00;92747.13;;;12.61;86.89
38558;BME280;24333;42.626;23.308;2022-10-31T03:29:33;92751.78;;;12.57;88.63
38558;BME280;24333;42.626;23.308;2022-10-31T04:12:04;92778.56;;;12.10;94.75
38558;BME280;24333;42.626;23.308;2022-10-31T04:14:35;92777.31;;;12.04;96.34
38558;BME280;24333;42.626;23.308;2022-10-31T04:20:37;92794.06;;;12.02;98.97
38558;BME280;24333;42.626;23.308;2022-10-31T04:23:03;92786.06;;;11.90;100.00
38558;BME280;24333;42.626;23.308;2022-10-31T04:25:29;92784.50;;;11.89;100.00
38558;BME280;24333;42.626;23.308;2022-10-31T04:27:55;92795.09;;;11.94;100.00
38558;BME280;24333;42.626;23.308;2022-10-31T04:30:26;92779.44;;;11.91;100.00
38558;BME280;24333;42.626;23.308;2022-10-31T04:32:56;92780.22;;;11.91;100.00
38558;BME280;24333;42.626;23.308;2022-10-31T04:40:32;92789.63;;;11.94;100.00
38558;BME280;24333;42.626;23.308;2022-10-31T04:42:59;92782.84;;;11.84;100.00
38558;BME280;24333;42.626;23.308;2022-10-31T04:45:25;92800.19;;;11.95;100.00
38558;BME280;24333;42.626;23.308;2022-10-31T04:47:51;92804.50;;;11.96;100.00
38558;BME280;24333;42.626;23.308;2022-10-31T04:57:42;92804.63;;;12.04;100.00
38558;BME280;24333;42.626;23.308;2022-10-31T05:18:28;92808.66;;;12.13;100.00
38558;BME280;24333;42.626;23.308;2022-10-31T05:20:54;92826.00;;;12.25;100.00
38558;BME280;24333;42.626;23.308;2022-10-31T05:23:19;92817.88;;;12.32;100.00
38558;BME280;24333;42.626;23.308;2022-10-31T05:29:34;92819.59;;;12.44;98.74
38558;BME280;24333;42.626;23.308;2022-10-31T05:32:00;92817.97;;;12.39;100.00
38558;BME280;24333;42.626;23.308;2022-10-31T05:34:25;92811.28;;;12.37;97.34
38558;BME280;24333;42.626;23.308;2022-10-31T05:36:50;92821.13;;;12.41;96.90
38558;BME280;24333;42.626;23.308;2022-10-31T05:39:16;92814.88;;;12.41;97.30
38558;BME280;24333;42.626;23.308;2022-10-31T05:41:41;92833.69;;;12.46;99.05
38558;BME280;24333;42.626;23.308;2022-10-31T05:44:07;92833.69;;;12.46;100.00
38558;BME280;24333;42.626;23.308;2022-10-31T05:46:32;92841.00;;;12.38;100.00
38558;BME280;24333;42.626;23.308;2022-10-31T05:48:58;92835.41;;;12.27;100.00
38558;BME280;24333;42.626;23.308;2022-10-31T05:51:24;92845.16;;;12.25;100.00
38558;BME280;24333;42.626;23.308;2022-10-31T05:53:49;92841.56;;;12.21;100.00
38558;BME280;24333;42.626;23.308;2022-10-31T05:56:15;92855.28;;;12.24;100.00
38558;BME280;24333;42.626;23.308;2022-10-31T05:58:40;92842.00;;;12.23;100.00
38558;BME280;24333;42.626;23.308;2022-10-31T06:01:05;92849.34;;;12.19;100.00
38558;BME280;24333;42.626;23.308;2022-10-31T06:03:31;92846.59;;;12.19;100.00
38558;BME280;24333;42.626;23.308;2022-10-31T06:05:56;92835.56;;;12.11;100.00
38558;BME280;24333;42.626;23.308;2022-10-31T06:08:22;92850.06;;;12.15;100.00
38558;BME280;24333;42.626;23.308;2022-10-31T06:10:47;92853.56;;;12.12;100.00
38558;BME280;24333;42.626;23.308;2022-10-31T06:13:13;92850.06;;;12.15;100.00
38558;BME280;24333;42.626;23.308;2022-10-31T06:15:38;92843.56;;;12.24;100.00
38558;BME280;24333;42.626;23.308;2022-10-31T06:18:05;92857.00;;;12.36;100.00
38558;BME280;24333;42.626;23.308;2022-10-31T06:20:31;92864.53;;;12.43;100.00
38558;BME280;24333;42.626;23.308;2022-10-31T06:22:57;92871.19;;;12.46;100.00
38558;BME280;24333;42.626;23.308;2022-10-31T06:25:23;92865.38;;;12.51;100.00
38558;BME280;24333;42.626;23.308;2022-10-31T06:27:48;92868.03;;;12.43;100.00
38558;BME280;24333;42.626;23.308;2022-10-31T06:30:14;92878.28;;;12.50;100.00
38558;BME280;24333;42.626;23.308;2022-10-31T06:32:39;92878.88;;;12.36;100.00
38558;BME280;24333;42.626;23.308;2022-10-31T06:35:05;92888.72;;;12.41;100.00
38558;BME280;24333;42.626;23.308;2022-10-31T06:37:31;92893.06;;;12.46;100.00
38558;BME280;24333;42.626;23.308;2022-10-31T06:39:56;92879.72;;;12.40;100.00
38558;BME280;24333;42.626;23.308;2022-10-31T06:42:22;92881.34;;;12.45;100.00
38558;BME280;24333;42.626;23.308;2022-10-31T08:31:30;92892.47;;;14.78;86.75
38558;BME280;24333;42.626;23.308;2022-10-31T08:33:56;92898.03;;;14.96;84.81
38558;BME280;24333;42.626;23.308;2022-10-31T08:36:21;92893.69;;;14.91;87.85
38558;BME280;24333;42.626;23.308;2022-10-31T08:38:47;92895.34;;;15.07;83.92
38558;BME280;24333;42.626;23.308;2022-10-31T08:54:10;92887.22;;;15.61;78.20
38558;BME280;24333;42.626;23.308;2022-10-31T08:57:09;92880.53;;;15.58;78.51
38558;BME280;24333;42.626;23.308;2022-10-31T08:59:38;92875.84;;;15.63;77.34
38558;BME280;24333;42.626;23.308;2022-10-31T09:02:25;92885.66;;;15.82;76.37
38558;BME280;24333;42.626;23.308;2022-10-31T09:04:50;92888.06;;;16.05;76.41
38558;BME280;24333;42.626;23.308;2022-10-31T09:07:16;92882.16;;;16.25;75.62
38558;BME280;24333;42.626;23.308;2022-10-31T09:09:46;92885.25;;;16.41;73.20
38558;BME280;24333;42.626;23.308;2022-10-31T09:12:11;92891.16;;;16.54;72.49
38558;BME280;24333;42.626;23.308;2022-10-31T09:14:36;92903.69;;;16.73;73.06
38558;BME280;24333;42.626;23.308;2022-10-31T09:17:02;92889.53;;;16.75;67.84
38558;BME280;24333;42.626;23.308;2022-10-31T09:19:45;92893.38;;;17.07;69.86
38558;BME280;24333;42.626;23.308;2022-10-31T09:22:11;92900.00;;;17.27;70.43
38558;BME280;24333;42.626;23.308;2022-10-31T09:24:37;92878.75;;;17.24;65.14
38558;BME280;24333;42.626;23.308;2022-10-31T09:51:20;92909.81;;;18.03;57.76
38558;BME280;24333;42.626;23.308;2022-10-31T09:56:28;92905.47;;;18.02;56.30
38558;BME280;24333;42.626;23.308;2022-10-31T09:59:00;92903.91;;;18.04;55.89
38558;BME280;24333;42.626;23.308;2022-10-31T10:01:37;92901.88;;;18.09;56.37
38558;BME280;24333;42.626;23.308;2022-10-31T10:06:51;92893.03;;;18.32;56.67
38558;BME280;24333;42.626;23.308;2022-10-31T10:09:20;92891.72;;;18.44;55.96
38558;BME280;24333;42.626;23.308;2022-10-31T10:12:13;92882.34;;;18.34;53.73
38558;BME280;24333;42.626;23.308;2022-10-31T10:14:48;92888.22;;;18.40;53.53
38558;BME280;24333;42.626;23.308;2022-10-31T10:20:10;92871.53;;;18.50;51.73
38558;BME280;24333;42.626;23.308;2022-10-31T10:48:51;92842.47;;;19.12;52.13
38558;BME280;24333;42.626;23.308;2022-10-31T10:51:23;92844.88;;;19.41;52.18
38558;BME280;24333;42.626;23.308;2022-10-31T10:54:17;92860.16;;;19.49;49.40
38558;BME280;24333;42.626;23.308;2022-10-31T11:33:49;92830.16;;;19.75;48.10
38558;BME280;24333;42.626;23.308;2022-10-31T11:36:22;92824.50;;;19.82;48.64
38558;BME280;24333;42.626;23.308;2022-10-31T11:38:48;92832.13;;;19.74;47.99
38558;BME280;24333;42.626;23.308;2022-10-31T11:41:17;92813.41;;;19.58;48.23
38558;BME280;24333;42.626;23.308;2022-10-31T11:43:54;92829.63;;;19.84;48.08
38558;BME280;24333;42.626;23.308;2022-10-31T11:50:01;92814.03;;;19.70;47.86
38558;BME280;24333;42.626;23.308;2022-10-31T11:52:31;92816.59;;;19.57;48.28
38558;BME280;24333;42.626;23.308;2022-10-31T11:55:00;92818.88;;;19.62;48.36
38558;BME280;24333;42.626;23.308;2022-10-31T11:57:29;92807.78;;;19.65;48.22
38558;BME280;24333;42.626;23.308;2022-10-31T12:00:04;92809.59;;;19.76;48.18
38558;BME280;24333;42.626;23.308;2022-10-31T12:02:44;92818.41;;;19.94;48.65
38558;BME280;24333;42.626;23.308;2022-10-31T12:15:47;92799.66;;;19.55;48.80
38558;BME280;24333;42.626;23.308;2022-10-31T12:30:46;92807.44;;;19.87;48.53
38558;BME280;24333;42.626;23.308;2022-10-31T12:41:11;92808.34;;;19.81;49.04
38558;BME280;24333;42.626;23.308;2022-10-31T12:46:09;92806.16;;;19.68;49.66
38558;BME280;24333;42.626;23.308;2022-10-31T12:55:00;92797.63;;;19.31;51.70
38558;BME280;24333;42.626;23.308;2022-10-31T13:11:56;92787.66;;;18.41;53.96
38558;BME280;24333;42.626;23.308;2022-10-31T13:14:38;92761.84;;;18.20;55.50
38558;BME280;24333;42.626;23.308;2022-10-31T13:17:34;92793.31;;;18.26;55.72
38558;BME280;24333;42.626;23.308;2022-10-31T13:23:34;92802.84;;;18.22;56.93
38558;BME280;24333;42.626;23.308;2022-10-31T13:26:13;92797.03;;;18.09;57.77
38558;BME280;24333;42.626;23.308;2022-10-31T13:29:21;92798.25;;;18.04;59.01
38558;BME280;24333;42.626;23.308;2022-10-31T13:38:38;92814.63;;;17.76;62.42
38558;BME280;24333;42.626;23.308;2022-10-31T13:41:34;92810.00;;;17.62;63.54
38558;BME280;24333;42.626;23.308;2022-10-31T13:46:38;92807.81;;;17.39;61.31
38558;BME280;24333;42.626;23.308;2022-10-31T14:55:43;92810.19;;;16.37;67.78
38558;BME280;24333;42.626;23.308;2022-10-31T14:58:17;92803.56;;;16.24;69.50
38558;BME280;24333;42.626;23.308;2022-10-31T15:00:59;92804.38;;;16.13;69.73
38558;BME280;24333;42.626;23.308;2022-10-31T15:03:30;92817.72;;;16.11;69.10
38558;BME280;24333;42.626;23.308;2022-10-31T15:05:59;92816.56;;;16.09;69.20
38558;BME280;24333;42.626;23.308;2022-10-31T15:08:33;92820.88;;;16.02;67.53
38558;BME280;24333;42.626;23.308;2022-10-31T15:11:02;92801.25;;;15.93;68.57
38558;BME280;24333;42.626;23.308;2022-10-31T15:13:51;92820.88;;;16.02;68.02
38558;BME280;24333;42.626;23.308;2022-10-31T15:20:06;92816.16;;;15.96;69.53
38558;BME280;24333;42.626;23.308;2022-10-31T15:22:54;92820.09;;;15.87;69.03
38558;BME280;24333;42.626;23.308;2022-10-31T15:25:34;92818.53;;;15.79;69.43
38558;BME280;24333;42.626;23.308;2022-10-31T15:27:59;92814.19;;;15.74;70.52
38558;BME280;24333;42.626;23.308;2022-10-31T15:30:28;92826.75;;;15.75;71.27
38558;BME280;24333;42.626;23.308;2022-10-31T15:32:53;92826.75;;;15.65;73.22
38558;BME280;24333;42.626;23.308;2022-10-31T15:35:22;92831.06;;;15.51;72.78
38558;BME280;24333;42.626;23.308;2022-10-31T15:37:49;92838.13;;;15.49;73.42
38558;BME280;24333;42.626;23.308;2022-10-31T15:40:19;92844.41;;;15.42;74.47
38558;BME280;24333;42.626;23.308;2022-10-31T15:42:51;92838.88;;;15.27;75.78
38558;BME280;24333;42.626;23.308;2022-10-31T15:45:20;92840.81;;;15.16;76.88
38558;BME280;24333;42.626;23.308;2022-10-31T15:47:57;92827.81;;;14.98;77.63
38558;BME280;24333;42.626;23.308;2022-10-31T15:52:53;92841.53;;;14.91;75.91
38558;BME280;24333;42.626;23.308;2022-10-31T15:55:23;92824.25;;;14.83;75.73
38558;BME280;24333;42.626;23.308;2022-10-31T15:57:55;92823.88;;;14.85;78.00
38558;BME280;24333;42.626;23.308;2022-10-31T16:00:37;92839.53;;;14.81;78.35
38558;BME280;24333;42.626;23.308;2022-10-31T16:05:51;92846.13;;;14.69;78.23
38558;BME280;24333;42.626;23.308;2022-10-31T16:11:23;92846.47;;;14.56;78.37
38558;BME280;24333;42.626;23.308;2022-10-31T16:17:51;92861.41;;;14.70;76.74
38558;BME280;24333;42.626;23.308;2022-10-31T16:20:28;92857.47;;;14.67;76.53
38558;BME280;24333;42.626;23.308;2022-10-31T16:22:55;92861.50;;;14.81;76.68
38558;BME280;24333;42.626;23.308;2022-10-31T16:27:54;92862.69;;;14.87;73.85
38558;BME280;24333;42.626;23.308;2022-10-31T16:30:29;92868.63;;;15.00;74.19
38558;BME280;24333;42.626;23.308;2022-10-31T16:32:58;92863.91;;;15.00;72.97
38558;BME280;24333;42.626;23.308;2022-10-31T16:35:38;92869.84;;;15.10;72.05
38558;BME280;24333;42.626;23.308;2022-10-31T16:38:05;92869.47;;;15.15;71.69
38558;BME280;24333;42.626;23.308;2022-10-31T16:40:39;92863.19;;;15.11;71.05
38558;BME280;24333;42.626;23.308;2022-10-31T16:43:15;92857.69;;;15.11;70.15
38558;BME280;24333;42.626;23.308;2022-10-31T16:45:44;92860.44;;;15.18;70.30
38558;BME280;24333;42.626;23.308;2022-10-31T16:48:13;92884.81;;;15.30;69.68
38558;BME280;24333;42.626;23.308;2022-10-31T16:50:40;92879.69;;;15.32;69.37
38558;BME280;24333;42.626;23.308;2022-10-31T16:53:06;92879.72;;;15.29;69.75
38558;BME280;24333;42.626;23.308;2022-10-31T16:55:32;92878.91;;;15.28;70.62
38558;BME280;24333;42.626;23.308;2022-10-31T16:58:00;92880.88;;;15.28;68.80
38558;BME280;24333;42.626;23.308;2022-10-31T17:00:27;92888.31;;;15.27;68.54
38558;BME280;24333;42.626;23.308;2022-10-31T17:02:55;92893.84;;;15.35;68.01
38558;BME280;24333;42.626;23.308;2022-10-31T17:05:24;92885.19;;;15.25;68.37
38558;BME280;24333;42.626;23.308;2022-10-31T17:07:58;92893.81;;;15.27;69.14
38558;BME280;24333;42.626;23.308;2022-10-31T17:10:25;92901.28;;;15.27;69.10
38558;BME280;24333;42.626;23.308;2022-10-31T17:12:50;92903.22;;;15.26;68.77
38558;BME280;24333;42.626;23.308;2022-10-31T17:15:24;92898.53;;;15.27;68.20
38558;BME280;24333;42.626;23.308;2022-10-31T17:17:51;92899.72;;;15.33;67.50
38558;BME280;24333;42.626;23.308;2022-10-31T17:20:25;92900.09;;;15.31;67.28
38558;BME280;24333;42.626;23.308;2022-10-31T17:22:51;92898.16;;;15.32;67.01
38558;BME280;24333;42.626;23.308;2022-10-31T17:25:22;92898.53;;;15.30;67.21
38558;BME280;24333;42.626;23.308;2022-10-31T17:27:49;92895.41;;;15.36;66.86
38558;BME280;24333;42.626;23.308;2022-10-31T17:30:17;92895.41;;;15.32;66.28
38558;BME280;24333;42.626;23.308;2022-10-31T17:33:00;92910.75;;;15.47;65.67
38558;BME280;24333;42.626;23.308;2022-10-31T17:35:26;92900.94;;;15.43;65.96
38558;BME280;24333;42.626;23.308;2022-10-31T17:37:59;92905.25;;;15.47;65.48
38558;BME280;24333;42.626;23.308;2022-10-31T17:40:25;92900.91;;;15.39;65.79
38558;BME280;24333;42.626;23.308;2022-10-31T17:42:52;92913.50;;;15.44;65.80
38558;BME280;24333;42.626;23.308;2022-10-31T17:45:19;92919.41;;;15.46;65.88
38558;BME280;24333;42.626;23.308;2022-10-31T17:47:46;92909.97;;;15.40;66.19
38558;BME280;24333;42.626;23.308;2022-10-31T17:50:13;92915.47;;;15.40;65.96
38558;BME280;24333;42.626;23.308;2022-10-31T18:03:02;92885.53;;;15.16;66.95
38558;BME280;24333;42.626;23.308;2022-10-31T18:05:28;92887.88;;;15.14;67.28
38558;BME280;24333;42.626;23.308;2022-10-31T18:11:27;92914.22;;;15.19;67.30
38558;BME280;24333;42.626;23.308;2022-10-31T18:13:56;92921.28;;;15.27;67.11
38558;BME280;24333;42.626;23.308;2022-10-31T18:16:22;92922.09;;;15.28;66.97
38558;BME280;24333;42.626;23.308;2022-10-31T18:18:52;92916.59;;;15.28;66.92
38558;BME280;24333;42.626;23.308;2022-10-31T18:21:18;92911.84;;;15.21;66.85
38558;BME280;24333;42.626;23.308;2022-10-31T18:23:44;92914.22;;;15.23;66.65
38558;BME280;24333;42.626;23.308;2022-10-31T18:26:10;92919.31;;;15.21;67.11
38558;BME280;24333;42.626;23.308;2022-10-31T18:28:36;92926.78;;;15.27;66.45
38558;BME280;24333;42.626;23.308;2022-10-31T18:31:02;92930.69;;;15.26;66.88
38558;BME280;24333;42.626;23.308;2022-10-31T18:33:28;92925.59;;;15.21;67.29
38558;BME280;24333;42.626;23.308;2022-10-31T18:35:53;92927.94;;;15.19;67.30
38558;BME280;24333;42.626;23.308;2022-10-31T18:38:19;92933.03;;;15.17;67.24
38558;BME280;24333;42.626;23.308;2022-10-31T18:40:44;92935.38;;;15.15;67.35
38558;BME280;24333;42.626;23.308;2022-10-31T18:53:30;92943.97;;;15.06;68.38
38558;BME280;24333;42.626;23.308;2022-10-31T18:55:57;92936.88;;;14.98;68.67
38558;BME280;24333;42.626;23.308;2022-10-31T18:58:24;92929.38;;;14.91;68.56
38558;BME280;24333;42.626;23.308;2022-10-31T19:00:51;92930.59;;;14.94;69.27
38558;BME280;24333;42.626;23.308;2022-10-31T19:03:18;92923.88;;;14.84;69.25
38558;BME280;24333;42.626;23.308;2022-10-31T19:05:43;92938.75;;;14.83;70.10
38558;BME280;24333;42.626;23.308;2022-10-31T19:08:10;92931.31;;;14.83;69.67
38558;BME280;24333;42.626;23.308;2022-10-31T19:10:37;92943.84;;;14.84;69.50
38558;BME280;24333;42.626;23.308;2022-10-31T19:13:08;92944.22;;;14.76;70.25
38558;BME280;24333;42.626;23.308;2022-10-31T19:15:36;92922.56;;;14.67;69.42
38558;BME280;24333;42.626;23.308;2022-10-31T19:18:02;92936.34;;;14.70;69.84
38558;BME280;24333;42.626;23.308;2022-10-31T19:20:29;92940.31;;;14.77;68.72
38558;BME280;24333;42.626;23.308;2022-10-31T19:22:55;92938.66;;;14.68;68.89
38558;BME280;24333;42.626;23.308;2022-10-31T19:25:21;92930.78;;;14.63;68.95
38558;BME280;24333;42.626;23.308;2022-10-31T19:27:49;92940.56;;;14.64;69.31
38558;BME280;24333;42.626;23.308;2022-10-31T19:30:14;92919.75;;;14.56;69.25
38558;BME280;24333;42.626;23.308;2022-10-31T19:33:01;92931.56;;;14.67;68.69
38558;BME280;24333;42.626;23.308;2022-10-31T19:35:30;92928.03;;;14.59;68.51
38558;BME280;24333;42.626;23.308;2022-10-31T19:37:56;92931.16;;;14.62;68.45
38558;BME280;24333;42.626;23.308;2022-10-31T19:40:22;92919.72;;;14.49;68.40
38558;BME280;24333;42.626;23.308;2022-10-31T20:16:24;92963.03;;;13.76;77.32
38558;BME280;24333;42.626;23.308;2022-10-31T20:18:50;92951.84;;;13.54;76.60
38558;BME280;24333;42.626;23.308;2022-10-31T20:21:20;92953.41;;;13.52;77.75
38558;BME280;24333;42.626;23.308;2022-10-31T20:23:47;92960.00;;;13.47;77.52
38558;BME280;24333;42.626;23.308;2022-10-31T20:26:17;92963.53;;;13.48;77.44
38558;BME280;24333;42.626;23.308;2022-10-31T20:28:43;92973.63;;;13.43;78.16
38558;BME280;24333;42.626;23.308;2022-10-31T20:31:13;92968.84;;;13.37;79.04
38558;BME280;24333;42.626;23.308;2022-10-31T20:33:39;92968.84;;;13.37;78.80
38558;BME280;24333;42.626;23.308;2022-10-31T20:36:06;92957.78;;;13.26;79.25
38558;BME280;24333;42.626;23.308;2022-10-31T20:38:33;92975.84;;;13.30;79.02
38558;BME280;24333;42.626;23.308;2022-10-31T20:41:03;92976.16;;;13.25;79.84
38558;BME280;24333;42.626;23.308;2022-10-31T20:43:29;92953.72;;;13.12;79.92
38558;BME280;24333;42.626;23.308;2022-10-31T20:46:05;92971.31;;;13.11;80.48
38558;BME280;24333;42.626;23.308;2022-10-31T20:48:31;92977.47;;;13.05;81.73
38558;BME280;24333;42.626;23.308;2022-10-31T20:50:58;92980.47;;;12.92;82.30
38558;BME280;24333;42.626;23.308;2022-10-31T20:53:25;92964.31;;;12.83;82.43
38558;BME280;24333;42.626;23.308;2022-10-31T20:58:22;92963.25;;;12.65;84.24
38558;BME280;24333;42.626;23.308;2022-10-31T21:00:47;92966.97;;;12.76;83.60
38558;BME280;24333;42.626;23.308;2022-10-31T21:03:12;92970.97;;;12.86;83.87
38558;BME280;24333;42.626;23.308;2022-10-31T21:05:38;92951.63;;;12.71;84.85
38558;BME280;24333;42.626;23.308;2022-10-31T21:08:04;92950.47;;;12.72;83.73
38558;BME280;24333;42.626;23.308;2022-10-31T21:10:29;92966.31;;;12.90;83.41
38558;BME280;24333;42.626;23.308;2022-10-31T21:12:55;92976.25;;;13.02;82.65
38558;BME280;24333;42.626;23.308;2022-10-31T21:15:20;92964.13;;;12.99;83.17
38558;BME280;24333;42.626;23.308;2022-10-31T21:17:45;92971.25;;;13.08;82.46
38558;BME280;24333;42.626;23.308;2022-10-31T21:20:11;92946.06;;;12.95;83.51
38558;BME280;24333;42.626;23.308;2022-10-31T21:22:37;92953.09;;;12.92;83.47
38558;BME280;24333;42.626;23.308;2022-10-31T21:25:03;92977.09;;;13.06;82.58
38558;BME280;24333;42.626;23.308;2022-10-31T21:27:29;92981.03;;;13.09;83.08
38558;BME280;24333;42.626;23.308;2022-10-31T21:30:24;92946.75;;;12.88;83.58
38558;BME280;24333;42.626;23.308;2022-10-31T21:32:49;92957.28;;;12.86;84.95
38558;BME280;24333;42.626;23.308;2022-10-31T21:35:15;92966.97;;;12.80;86.01
38558;BME280;24333;42.626;23.308;2022-10-31T21:37:40;92959.50;;;12.73;87.00
38558;BME280;24333;42.626;23.308;2022-10-31T21:40:06;92977.78;;;12.69;88.07
38558;BME280;24333;42.626;23.308;2022-10-31T21:42:34;92972.94;;;12.58;88.74
38558;BME280;24333;42.626;23.308;2022-10-31T21:44:59;92949.63;;;12.38;90.48
38558;BME280;24333;42.626;23.308;2022-10-31T21:47:25;92966.13;;;12.45;90.98
38558;BME280;24333;42.626;23.308;2022-10-31T21:49:50;92971.19;;;12.43;91.19
38558;BME280;24333;42.626;23.308;2022-10-31T21:52:15;92967.16;;;12.37;92.55
38558;BME280;24333;42.626;23.308;2022-10-31T21:54:41;92966.38;;;12.36;93.00
38558;BME280;24333;42.626;23.308;2022-10-31T21:57:06;92967.84;;;12.30;93.21
38558;BME280;24333;42.626;23.308;2022-10-31T21:59:32;92967.84;;;12.30;92.92
38558;BME280;24333;42.626;23.308;2022-10-31T22:04:33;92966.69;;;12.31;93.84
38558;BME280;24333;42.626;23.308;2022-10-31T22:07:10;92971.78;;;12.33;94.65
38558;BME280;24333;42.626;23.308;2022-10-31T22:09:36;92968.28;;;12.32;94.16
38558;BME280;24333;42.626;23.308;2022-10-31T22:12:03;92964.06;;;12.38;94.52
38558;BME280;24333;42.626;23.308;2022-10-31T22:14:31;92955.50;;;12.40;93.66
38558;BME280;24333;42.626;23.308;2022-10-31T22:16:57;92955.94;;;12.42;93.70
38558;BME280;24333;42.626;23.308;2022-10-31T22:19:34;92944.19;;;12.41;92.63
38558;BME280;24333;42.626;23.308;2022-10-31T22:22:20;92972.69;;;12.67;92.32
38558;BME280;24333;42.626;23.308;2022-10-31T22:24:47;92974.13;;;12.57;92.61
38558;BME280;24333;42.626;23.308;2022-10-31T22:27:12;92964.69;;;12.55;92.96
38558;BME280;24333;42.626;23.308;2022-10-31T22:29:38;92963.81;;;12.47;92.94
38558;BME280;24333;42.626;23.308;2022-10-31T22:32:04;92966.16;;;12.49;93.76
38558;BME280;24333;42.626;23.308;2022-10-31T22:34:29;92962.16;;;12.42;94.14
38558;BME280;24333;42.626;23.308;2022-10-31T22:36:55;92948.34;;;12.32;94.95
38558;BME280;24333;42.626;23.308;2022-10-31T22:39:22;92976.59;;;12.39;95.24
38558;BME280;24333;42.626;23.308;2022-10-31T22:41:47;92959.97;;;12.25;96.43
38558;BME280;24333;42.626;23.308;2022-10-31T22:44:13;92971.69;;;12.25;96.39
38558;BME280;24333;42.626;23.308;2022-10-31T22:46:38;92977.47;;;12.20;97.86
38558;BME280;24333;42.626;23.308;2022-10-31T22:49:10;92956.91;;;12.03;99.06
38558;BME280;24333;42.626;23.308;2022-10-31T23:24:52;92967.69;;;11.30;100.00
38558;BME280;24333;42.626;23.308;2022-10-31T23:27:22;92967.69;;;11.30;100.00
38558;BME280;24333;42.626;23.308;2022-10-31T23:29:51;92958.44;;;11.34;100.00
38558;BME280;24333;42.626;23.308;2022-10-31T23:32:29;92951.22;;;11.26;100.00
38558;BME280;24333;42.626;23.308;2022-10-31T23:35:00;92956.22;;;11.20;100.00
38558;BME280;24333;42.626;23.308;2022-10-31T23:37:29;92949.09;;;11.16;100.00
38558;BME280;24333;42.626;23.308;2022-10-31T23:39:54;92958.94;;;11.20;100.00
38558;BME280;24333;42.626;23.308;2022-10-31T23:42:20;92949.59;;;11.21;100.00
38558;BME280;24333;42.626;23.308;2022-10-31T23:44:46;92943.63;;;11.16;100.00
38558;BME280;24333;42.626;23.308;2022-10-31T23:47:12;92957.78;;;11.21;100.00
38558;BME280;24333;42.626;23.308;2022-10-31T23:49:38;92954.94;;;11.14;100.00
38558;BME280;24333;42.626;23.308;2022-10-31T23:52:04;92946.28;;;11.12;100.00
38558;BME280;24333;42.626;23.308;2022-10-31T23:54:31;92954.13;;;11.13;100.00
38558;BME280;24333;42.626;23.308;2022-10-31T23:56:57;92951.31;;;11.10;100.00
38558;BME280;24333;42.626;23.308;2022-10-31T23:59:24;92965.03;;;11.13;100.00
